sensor_id;sensor_type;location;lat;lon;timestamp;pressure;altitude;pressure_sealevel;temperature;humidity
41898;BME280;27576;53.366;-1.498;2023-08-17T00:02:20;100892.91;;;17.23;100.00
41898;BME280;27576;53.366;-1.498;2023-08-17T00:04:46;100896.34;;;17.28;100.00
41898;BME280;27576;53.366;-1.498;2023-08-17T00:07:11;100861.59;;;17.04;100.00
41898;BME280;27576;53.366;-1.498;2023-08-17T00:09:37;100898.97;;;17.28;100.00
41898;BME280;27576;53.366;-1.498;2023-08-17T00:12:02;100891.13;;;17.25;100.00
41898;BME280;27576;53.366;-1.498;2023-08-17T00:14:28;100865.94;;;17.08;100.00
41898;BME280;27576;53.366;-1.498;2023-08-17T00:16:54;100879.84;;;17.18;100.00
41898;BME280;27576;53.366;-1.498;2023-08-17T00:19:19;100891.13;;;17.25;100.00
41898;BME280;27576;53.366;-1.498;2023-08-17T00:21:45;100899.88;;;17.24;100.00
41898;BME280;27576;53.366;-1.498;2023-08-17T00:24:10;100875.50;;;17.12;100.00
41898;BME280;27576;53.366;-1.498;2023-08-17T00:26:36;100887.75;;;17.13;100.00
41898;BME280;27576;53.366;-1.498;2023-08-17T00:29:02;100889.50;;;17.08;100.00
41898;BME280;27576;53.366;-1.498;2023-08-17T00:31:28;100906.88;;;17.20;100.00
41898;BME280;27576;53.366;-1.498;2023-08-17T00:33:53;100901.66;;;17.18;100.00
41898;BME280;27576;53.366;-1.498;2023-08-17T00:36:18;100906.03;;;17.18;100.00
41898;BME280;27576;53.366;-1.498;2023-08-17T00:38:44;100906.91;;;17.18;100.00
41898;BME280;27576;53.366;-1.498;2023-08-17T00:41:09;100906.03;;;17.16;100.00
41898;BME280;27576;53.366;-1.498;2023-08-17T00:43:34;100905.16;;;17.16;100.00
41898;BME280;27576;53.366;-1.498;2023-08-17T00:46:00;100899.09;;;17.14;100.00
41898;BME280;27576;53.366;-1.498;2023-08-17T00:48:26;100898.22;;;17.13;100.00
41898;BME280;27576;53.366;-1.498;2023-08-17T00:50:54;100894.72;;;17.08;100.00
41898;BME280;27576;53.366;-1.498;2023-08-17T00:53:20;100898.22;;;17.09;100.00
41898;BME280;27576;53.366;-1.498;2023-08-17T00:55:45;100898.19;;;17.12;100.00
41898;BME280;27576;53.366;-1.498;2023-08-17T00:58:11;100898.22;;;17.10;100.00
41898;BME280;27576;53.366;-1.498;2023-08-17T01:00:37;100886.88;;;17.05;100.00
41898;BME280;27576;53.366;-1.498;2023-08-17T01:03:02;100903.44;;;17.09;100.00
41898;BME280;27576;53.366;-1.498;2023-08-17T01:05:29;100897.38;;;17.04;100.00
41898;BME280;27576;53.366;-1.498;2023-08-17T01:07:56;100905.19;;;17.08;100.00
41898;BME280;27576;53.366;-1.498;2023-08-17T01:10:21;100901.72;;;17.08;100.00
41898;BME280;27576;53.366;-1.498;2023-08-17T01:18:06;100877.38;;;16.92;100.00
41898;BME280;27576;53.366;-1.498;2023-08-17T01:20:35;100883.47;;;16.99;100.00
41898;BME280;27576;53.366;-1.498;2023-08-17T01:23:05;100891.31;;;17.02;100.00
41898;BME280;27576;53.366;-1.498;2023-08-17T01:25:30;100894.78;;;17.02;100.00
41898;BME280;27576;53.366;-1.498;2023-08-17T01:27:56;100893.91;;;17.00;100.00
41898;BME280;27576;53.366;-1.498;2023-08-17T01:30:24;100899.16;;;17.00;100.00
41898;BME280;27576;53.366;-1.498;2023-08-17T01:32:50;100893.03;;;17.00;100.00
41898;BME280;27576;53.366;-1.498;2023-08-17T01:35:36;100883.50;;;16.94;100.00
41898;BME280;27576;53.366;-1.498;2023-08-17T01:38:07;100877.41;;;16.90;100.00
41898;BME280;27576;53.366;-1.498;2023-08-17T01:40:33;100889.56;;;16.99;100.00
41898;BME280;27576;53.366;-1.498;2023-08-17T01:43:00;100890.44;;;16.98;100.00
41898;BME280;27576;53.366;-1.498;2023-08-17T01:45:25;100893.91;;;17.00;100.00
41898;BME280;27576;53.366;-1.498;2023-08-17T01:47:50;100881.72;;;16.93;100.00
41898;BME280;27576;53.366;-1.498;2023-08-17T01:50:16;100893.06;;;16.98;100.00
41898;BME280;27576;53.366;-1.498;2023-08-17T01:52:42;100889.56;;;16.96;100.00
41898;BME280;27576;53.366;-1.498;2023-08-17T01:55:07;100891.31;;;16.97;100.00
41898;BME280;27576;53.366;-1.498;2023-08-17T01:57:33;100900.03;;;16.99;100.00
41898;BME280;27576;53.366;-1.498;2023-08-17T02:00:00;100896.56;;;16.99;100.00
41898;BME280;27576;53.366;-1.498;2023-08-17T02:02:25;100891.28;;;17.00;100.00
41898;BME280;27576;53.366;-1.498;2023-08-17T02:04:51;100893.91;;;17.02;100.00
41898;BME280;27576;53.366;-1.498;2023-08-17T02:07:16;100890.41;;;17.03;100.00
41898;BME280;27576;53.366;-1.498;2023-08-17T02:09:41;100885.19;;;16.97;100.00
41898;BME280;27576;53.366;-1.498;2023-08-17T02:12:07;100864.38;;;16.80;100.00
41898;BME280;27576;53.366;-1.498;2023-08-17T02:14:33;100899.16;;;17.02;100.00
41898;BME280;27576;53.366;-1.498;2023-08-17T02:16:58;100900.03;;;17.02;100.00
41898;BME280;27576;53.366;-1.498;2023-08-17T02:19:24;100903.50;;;17.01;100.00
41898;BME280;27576;53.366;-1.498;2023-08-17T02:21:49;100896.53;;;16.97;100.00
41898;BME280;27576;53.366;-1.498;2023-08-17T02:24:15;100885.25;;;16.89;100.00
41898;BME280;27576;53.366;-1.498;2023-08-17T02:26:40;100894.81;;;16.96;100.00
41898;BME280;27576;53.366;-1.498;2023-08-17T02:29:05;100897.44;;;16.95;100.00
41898;BME280;27576;53.366;-1.498;2023-08-17T02:31:30;100891.34;;;16.91;100.00
41898;BME280;27576;53.366;-1.498;2023-08-17T02:33:56;100881.78;;;16.90;100.00
41898;BME280;27576;53.366;-1.498;2023-08-17T02:36:26;100881.78;;;16.87;100.00
41898;BME280;27576;53.366;-1.498;2023-08-17T02:38:51;100870.50;;;16.76;100.00
41898;BME280;27576;53.366;-1.498;2023-08-17T02:41:17;100885.28;;;16.84;100.00
41898;BME280;27576;53.366;-1.498;2023-08-17T02:43:42;100891.38;;;16.88;100.00
41898;BME280;27576;53.366;-1.498;2023-08-17T02:46:08;100887.88;;;16.84;100.00
41898;BME280;27576;53.366;-1.498;2023-08-17T02:48:33;100867.91;;;16.74;100.00
41898;BME280;27576;53.366;-1.498;2023-08-17T02:50:59;100866.13;;;16.72;100.00
41898;BME280;27576;53.366;-1.498;2023-08-17T02:53:24;100880.09;;;16.75;100.00
41898;BME280;27576;53.366;-1.498;2023-08-17T02:55:49;100873.13;;;16.74;100.00
41898;BME280;27576;53.366;-1.498;2023-08-17T02:58:15;100894.00;;;16.86;100.00
41898;BME280;27576;53.366;-1.498;2023-08-17T03:00:40;100878.34;;;16.76;100.00
41898;BME280;27576;53.366;-1.498;2023-08-17T03:03:05;100872.25;;;16.75;100.00
41898;BME280;27576;53.366;-1.498;2023-08-17T03:05:31;100865.25;;;16.71;100.00
41898;BME280;27576;53.366;-1.498;2023-08-17T03:07:56;100897.47;;;16.87;100.00
41898;BME280;27576;53.366;-1.498;2023-08-17T03:10:22;100882.69;;;16.83;100.00
41898;BME280;27576;53.366;-1.498;2023-08-17T03:12:47;100896.59;;;16.88;100.00
41898;BME280;27576;53.366;-1.498;2023-08-17T03:15:13;100878.31;;;16.80;100.00
41898;BME280;27576;53.366;-1.498;2023-08-17T03:17:38;100870.50;;;16.76;100.00
41898;BME280;27576;53.366;-1.498;2023-08-17T03:20:04;100882.66;;;16.86;100.00
41898;BME280;27576;53.366;-1.498;2023-08-17T03:22:32;100870.44;;;16.82;100.00
41898;BME280;27576;53.366;-1.498;2023-08-17T03:24:57;100874.84;;;16.78;100.00
41898;BME280;27576;53.366;-1.498;2023-08-17T03:27:23;100893.09;;;16.90;100.00
41898;BME280;27576;53.366;-1.498;2023-08-17T03:29:50;100878.31;;;16.80;100.00
41898;BME280;27576;53.366;-1.498;2023-08-17T03:32:15;100887.00;;;16.90;100.00
41898;BME280;27576;53.366;-1.498;2023-08-17T03:34:40;100853.03;;;16.68;100.00
41898;BME280;27576;53.366;-1.498;2023-08-17T03:37:06;100889.59;;;16.91;100.00
41898;BME280;27576;53.366;-1.498;2023-08-17T03:39:31;100865.25;;;16.79;100.00
41898;BME280;27576;53.366;-1.498;2023-08-17T03:41:56;100890.47;;;16.92;100.00
41898;BME280;27576;53.366;-1.498;2023-08-17T03:44:22;100863.47;;;16.78;100.00
41898;BME280;27576;53.366;-1.498;2023-08-17T03:46:47;100882.63;;;16.89;100.00
41898;BME280;27576;53.366;-1.498;2023-08-17T03:49:12;100884.38;;;16.91;100.00
41898;BME280;27576;53.366;-1.498;2023-08-17T03:51:39;100882.63;;;16.92;100.00
41898;BME280;27576;53.366;-1.498;2023-08-17T03:54:04;100877.38;;;16.89;100.00
41898;BME280;27576;53.366;-1.498;2023-08-17T03:56:30;100869.59;;;16.80;100.00
41898;BME280;27576;53.366;-1.498;2023-08-17T03:58:55;100883.50;;;16.91;100.00
41898;BME280;27576;53.366;-1.498;2023-08-17T04:01:20;100866.09;;;16.81;100.00
41898;BME280;27576;53.366;-1.498;2023-08-17T04:03:46;100884.34;;;16.93;100.00
41898;BME280;27576;53.366;-1.498;2023-08-17T04:06:11;100878.28;;;16.86;100.00
41898;BME280;27576;53.366;-1.498;2023-08-17T04:08:37;100886.13;;;16.91;100.00
41898;BME280;27576;53.366;-1.498;2023-08-17T04:11:03;100882.63;;;16.92;100.00
41898;BME280;27576;53.366;-1.498;2023-08-17T04:13:29;100879.16;;;16.90;100.00
41898;BME280;27576;53.366;-1.498;2023-08-17T04:15:54;100865.19;;;16.85;100.00
41898;BME280;27576;53.366;-1.498;2023-08-17T04:18:19;100862.63;;;16.79;100.00
41898;BME280;27576;53.366;-1.498;2023-08-17T04:20:45;100885.25;;;16.90;100.00
41898;BME280;27576;53.366;-1.498;2023-08-17T04:23:10;100885.22;;;16.92;100.00
41898;BME280;27576;53.366;-1.498;2023-08-17T04:25:35;100886.13;;;16.91;100.00
41898;BME280;27576;53.366;-1.498;2023-08-17T04:28:01;100882.63;;;16.89;100.00
41898;BME280;27576;53.366;-1.498;2023-08-17T04:30:26;100889.63;;;16.90;100.00
41898;BME280;27576;53.366;-1.498;2023-08-17T04:32:52;100889.63;;;16.90;100.00
41898;BME280;27576;53.366;-1.498;2023-08-17T04:35:20;100873.06;;;16.83;100.00
41898;BME280;27576;53.366;-1.498;2023-08-17T04:37:46;100880.88;;;16.88;100.00
41898;BME280;27576;53.366;-1.498;2023-08-17T04:40:12;100884.38;;;16.88;100.00
41898;BME280;27576;53.366;-1.498;2023-08-17T04:42:38;100884.41;;;16.87;100.00
41898;BME280;27576;53.366;-1.498;2023-08-17T04:45:03;100880.06;;;16.83;100.00
41898;BME280;27576;53.366;-1.498;2023-08-17T04:47:29;100880.91;;;16.86;100.00
41898;BME280;27576;53.366;-1.498;2023-08-17T04:49:54;100875.69;;;16.83;100.00
41898;BME280;27576;53.366;-1.498;2023-08-17T04:52:19;100869.59;;;16.80;100.00
41898;BME280;27576;53.366;-1.498;2023-08-17T04:54:45;100883.53;;;16.86;100.00
41898;BME280;27576;53.366;-1.498;2023-08-17T04:57:10;100867.88;;;16.79;100.00
41898;BME280;27576;53.366;-1.498;2023-08-17T04:59:36;100887.00;;;16.87;100.00
41898;BME280;27576;53.366;-1.498;2023-08-17T05:02:01;100875.72;;;16.79;100.00
41898;BME280;27576;53.366;-1.498;2023-08-17T05:04:27;100880.03;;;16.84;100.00
41898;BME280;27576;53.366;-1.498;2023-08-17T05:06:52;100885.28;;;16.84;100.00
41898;BME280;27576;53.366;-1.498;2023-08-17T05:09:17;100884.41;;;16.84;100.00
41898;BME280;27576;53.366;-1.498;2023-08-17T05:11:43;100864.38;;;16.72;100.00
41898;BME280;27576;53.366;-1.498;2023-08-17T05:14:08;100860.00;;;16.69;100.00
41898;BME280;27576;53.366;-1.498;2023-08-17T05:16:34;100887.00;;;16.85;100.00
41898;BME280;27576;53.366;-1.498;2023-08-17T05:18:59;100853.91;;;16.69;100.00
41898;BME280;27576;53.366;-1.498;2023-08-17T05:21:25;100879.16;;;16.84;100.00
41898;BME280;27576;53.366;-1.498;2023-08-17T05:23:51;100863.50;;;16.70;100.00
41898;BME280;27576;53.366;-1.498;2023-08-17T05:26:16;100884.41;;;16.84;100.00
41898;BME280;27576;53.366;-1.498;2023-08-17T05:28:42;100882.69;;;16.83;100.00
41898;BME280;27576;53.366;-1.498;2023-08-17T05:31:08;100887.91;;;16.83;100.00
41898;BME280;27576;53.366;-1.498;2023-08-17T05:33:34;100872.22;;;16.74;100.00
41898;BME280;27576;53.366;-1.498;2023-08-17T05:36:00;100882.69;;;16.80;100.00
41898;BME280;27576;53.366;-1.498;2023-08-17T05:38:25;100867.91;;;16.74;100.00
41898;BME280;27576;53.366;-1.498;2023-08-17T05:40:57;100859.16;;;16.66;100.00
41898;BME280;27576;53.366;-1.498;2023-08-17T05:43:23;100887.91;;;16.81;100.00
41898;BME280;27576;53.366;-1.498;2023-08-17T05:45:49;100888.75;;;16.82;100.00
41898;BME280;27576;53.366;-1.498;2023-08-17T05:48:15;100884.41;;;16.81;100.00
41898;BME280;27576;53.366;-1.498;2023-08-17T05:50:43;100867.00;;;16.71;100.00
41898;BME280;27576;53.366;-1.498;2023-08-17T05:53:09;100874.00;;;16.75;100.00
41898;BME280;27576;53.366;-1.498;2023-08-17T05:55:35;100894.03;;;16.79;100.00
41898;BME280;27576;53.366;-1.498;2023-08-17T05:58:01;100873.13;;;16.74;100.00
41898;BME280;27576;53.366;-1.498;2023-08-17T06:00:27;100885.31;;;16.80;100.00
41898;BME280;27576;53.366;-1.498;2023-08-17T06:02:52;100891.38;;;16.82;100.00
41898;BME280;27576;53.366;-1.498;2023-08-17T06:05:23;100889.66;;;16.79;100.00
41898;BME280;27576;53.366;-1.498;2023-08-17T06:07:50;100897.50;;;16.84;100.00
41898;BME280;27576;53.366;-1.498;2023-08-17T06:10:15;100878.31;;;16.77;100.00
41898;BME280;27576;53.366;-1.498;2023-08-17T06:12:41;100870.47;;;16.69;100.00
41898;BME280;27576;53.366;-1.498;2023-08-17T06:15:06;100856.53;;;16.69;100.00
41898;BME280;27576;53.366;-1.498;2023-08-17T06:17:32;100890.50;;;16.87;100.00
41898;BME280;27576;53.366;-1.498;2023-08-17T06:19:57;100890.50;;;16.90;100.00
41898;BME280;27576;53.366;-1.498;2023-08-17T06:22:22;100899.19;;;16.92;100.00
41898;BME280;27576;53.366;-1.498;2023-08-17T06:24:48;100903.56;;;16.92;100.00
41898;BME280;27576;53.366;-1.498;2023-08-17T06:27:14;100878.31;;;16.77;100.00
41898;BME280;27576;53.366;-1.498;2023-08-17T06:29:39;100898.34;;;16.90;100.00
41898;BME280;27576;53.366;-1.498;2023-08-17T06:32:05;100893.09;;;16.90;100.00
41898;BME280;27576;53.366;-1.498;2023-08-17T06:34:30;100889.63;;;16.85;100.00
41898;BME280;27576;53.366;-1.498;2023-08-17T06:36:57;100897.47;;;16.90;100.00
41898;BME280;27576;53.366;-1.498;2023-08-17T06:39:23;100907.03;;;16.89;100.00
41898;BME280;27576;53.366;-1.498;2023-08-17T06:41:48;100886.19;;;16.76;100.00
41898;BME280;27576;53.366;-1.498;2023-08-17T06:44:14;100901.00;;;16.86;100.00
41898;BME280;27576;53.366;-1.498;2023-08-17T06:46:39;100905.34;;;16.84;100.00
41898;BME280;27576;53.366;-1.498;2023-08-17T06:49:05;100896.66;;;16.79;100.00
41898;BME280;27576;53.366;-1.498;2023-08-17T06:51:30;100907.06;;;16.85;100.00
41898;BME280;27576;53.366;-1.498;2023-08-17T06:53:55;100902.72;;;16.87;100.00
41898;BME280;27576;53.366;-1.498;2023-08-17T06:56:21;100899.22;;;16.88;100.00
41898;BME280;27576;53.366;-1.498;2023-08-17T06:58:48;100904.44;;;16.91;100.00
41898;BME280;27576;53.366;-1.498;2023-08-17T07:01:13;100879.22;;;16.75;100.00
41898;BME280;27576;53.366;-1.498;2023-08-17T07:03:39;100891.38;;;16.85;100.00
41898;BME280;27576;53.366;-1.498;2023-08-17T07:06:05;100895.69;;;16.93;100.00
41898;BME280;27576;53.366;-1.498;2023-08-17T07:08:30;100900.03;;;17.02;100.00
41898;BME280;27576;53.366;-1.498;2023-08-17T07:10:56;100898.25;;;17.04;100.00
41898;BME280;27576;53.366;-1.498;2023-08-17T07:13:22;100903.44;;;17.09;100.00
41898;BME280;27576;53.366;-1.498;2023-08-17T07:15:47;100903.47;;;17.10;100.00
41898;BME280;27576;53.366;-1.498;2023-08-17T07:18:13;100894.72;;;17.11;100.00
41898;BME280;27576;53.366;-1.498;2023-08-17T07:20:38;100888.63;;;17.08;100.00
41898;BME280;27576;53.366;-1.498;2023-08-17T07:23:03;100875.59;;;17.00;100.00
41898;BME280;27576;53.366;-1.498;2023-08-17T07:25:29;100906.03;;;17.18;100.00
41898;BME280;27576;53.366;-1.498;2023-08-17T07:27:54;100884.28;;;17.05;100.00
41898;BME280;27576;53.366;-1.498;2023-08-17T07:30:19;100896.44;;;17.15;100.00
41898;BME280;27576;53.366;-1.498;2023-08-17T07:32:45;100893.84;;;17.14;100.00
41898;BME280;27576;53.366;-1.498;2023-08-17T07:35:10;100899.88;;;17.21;100.00
41898;BME280;27576;53.366;-1.498;2023-08-17T07:37:36;100872.94;;;17.05;100.00
41898;BME280;27576;53.366;-1.498;2023-08-17T07:40:01;100903.41;;;17.16;100.00
41898;BME280;27576;53.366;-1.498;2023-08-17T07:42:30;100896.44;;;17.15;100.00
41898;BME280;27576;53.366;-1.498;2023-08-17T07:44:55;100877.28;;;17.07;100.00
41898;BME280;27576;53.366;-1.498;2023-08-17T07:47:21;100886.84;;;17.13;100.00
41898;BME280;27576;53.366;-1.498;2023-08-17T07:49:46;100903.38;;;17.26;100.00
41898;BME280;27576;53.366;-1.498;2023-08-17T07:52:11;100899.84;;;17.28;100.00
41898;BME280;27576;53.366;-1.498;2023-08-17T07:54:37;100896.34;;;17.31;100.00
41898;BME280;27576;53.366;-1.498;2023-08-17T07:57:02;100897.19;;;17.33;100.00
41898;BME280;27576;53.366;-1.498;2023-08-17T07:59:29;100876.31;;;17.25;100.00
41898;BME280;27576;53.366;-1.498;2023-08-17T08:01:54;100897.16;;;17.36;100.00
41898;BME280;27576;53.366;-1.498;2023-08-17T08:04:19;100885.88;;;17.31;100.00
41898;BME280;27576;53.366;-1.498;2023-08-17T08:06:45;100899.78;;;17.36;100.00
41898;BME280;27576;53.366;-1.498;2023-08-17T08:09:11;100905.00;;;17.40;100.00
41898;BME280;27576;53.366;-1.498;2023-08-17T08:11:37;100903.22;;;17.44;100.00
41898;BME280;27576;53.366;-1.498;2023-08-17T08:14:02;100894.50;;;17.45;100.00
41898;BME280;27576;53.366;-1.498;2023-08-17T08:16:28;100900.59;;;17.44;100.00
41898;BME280;27576;53.366;-1.498;2023-08-17T08:18:56;100899.72;;;17.47;100.00
41898;BME280;27576;53.366;-1.498;2023-08-17T08:21:22;100865.78;;;17.28;100.00
41898;BME280;27576;53.366;-1.498;2023-08-17T08:23:47;100874.50;;;17.33;100.00
41898;BME280;27576;53.366;-1.498;2023-08-17T08:26:13;100898.84;;;17.45;100.00
41898;BME280;27576;53.366;-1.498;2023-08-17T08:28:39;100906.72;;;17.43;100.00
41898;BME280;27576;53.366;-1.498;2023-08-17T08:31:04;100895.38;;;17.46;100.00
41898;BME280;27576;53.366;-1.498;2023-08-17T08:33:30;100895.31;;;17.52;100.00
41898;BME280;27576;53.366;-1.498;2023-08-17T08:35:55;100896.16;;;17.52;100.00
41898;BME280;27576;53.366;-1.498;2023-08-17T08:38:20;100890.97;;;17.48;100.00
41898;BME280;27576;53.366;-1.498;2023-08-17T08:40:47;100896.16;;;17.55;100.00
41898;BME280;27576;53.366;-1.498;2023-08-17T08:43:13;100900.53;;;17.55;100.00
41898;BME280;27576;53.366;-1.498;2023-08-17T08:45:41;100909.25;;;17.55;100.00
41898;BME280;27576;53.366;-1.498;2023-08-17T08:48:08;100901.38;;;17.55;100.00
41898;BME280;27576;53.366;-1.498;2023-08-17T08:50:35;100894.41;;;17.57;100.00
41898;BME280;27576;53.366;-1.498;2023-08-17T08:53:02;100866.59;;;17.41;100.00
41898;BME280;27576;53.366;-1.498;2023-08-17T08:55:34;100903.97;;;17.60;100.00
41898;BME280;27576;53.366;-1.498;2023-08-17T08:58:02;100881.31;;;17.54;100.00
41898;BME280;27576;53.366;-1.498;2023-08-17T09:00:29;100900.47;;;17.62;100.00
41898;BME280;27576;53.366;-1.498;2023-08-17T09:02:55;100888.31;;;17.52;100.00
41898;BME280;27576;53.366;-1.498;2023-08-17T09:05:22;100899.66;;;17.54;100.00
41898;BME280;27576;53.366;-1.498;2023-08-17T09:07:48;100910.06;;;17.60;100.00
41898;BME280;27576;53.366;-1.498;2023-08-17T09:10:14;100899.56;;;17.63;100.00
41898;BME280;27576;53.366;-1.498;2023-08-17T09:12:43;100901.25;;;17.71;100.00
41898;BME280;27576;53.366;-1.498;2023-08-17T09:15:09;100906.50;;;17.75;100.00
41898;BME280;27576;53.366;-1.498;2023-08-17T09:17:35;100901.25;;;17.77;100.00
41898;BME280;27576;53.366;-1.498;2023-08-17T09:20:00;100903.81;;;17.83;100.00
41898;BME280;27576;53.366;-1.498;2023-08-17T09:22:37;100910.81;;;17.82;100.00
41898;BME280;27576;53.366;-1.498;2023-08-17T09:25:05;100899.47;;;17.82;100.00
41898;BME280;27576;53.366;-1.498;2023-08-17T09:27:31;100904.69;;;17.82;100.00
41898;BME280;27576;53.366;-1.498;2023-08-17T09:30:05;100904.66;;;17.83;100.00
41898;BME280;27576;53.366;-1.498;2023-08-17T09:32:32;100901.16;;;17.89;100.00
41898;BME280;27576;53.366;-1.498;2023-08-17T09:35:05;100895.03;;;17.87;100.00
41898;BME280;27576;53.366;-1.498;2023-08-17T09:37:31;100888.03;;;17.87;100.00
41898;BME280;27576;53.366;-1.498;2023-08-17T09:39:57;100890.63;;;17.90;100.00
41898;BME280;27576;53.366;-1.498;2023-08-17T09:42:23;100893.19;;;17.95;100.00
41898;BME280;27576;53.366;-1.498;2023-08-17T09:44:51;100888.81;;;17.97;100.00
41898;BME280;27576;53.366;-1.498;2023-08-17T09:47:16;100894.00;;;18.05;100.00
41898;BME280;27576;53.366;-1.498;2023-08-17T09:49:48;100895.69;;;18.10;100.00
41898;BME280;27576;53.366;-1.498;2023-08-17T09:52:13;100897.31;;;18.22;100.00
41898;BME280;27576;53.366;-1.498;2023-08-17T09:54:39;100885.09;;;18.20;100.00
41898;BME280;27576;53.366;-1.498;2023-08-17T09:57:05;100874.63;;;18.20;100.00
41898;BME280;27576;53.366;-1.498;2023-08-17T09:59:31;100887.59;;;18.30;100.00
41898;BME280;27576;53.366;-1.498;2023-08-17T10:01:58;100876.22;;;18.30;100.00
41898;BME280;27576;53.366;-1.498;2023-08-17T10:04:25;100891.03;;;18.37;100.00
41898;BME280;27576;53.366;-1.498;2023-08-17T10:07:03;100898.00;;;18.38;100.00
41898;BME280;27576;53.366;-1.498;2023-08-17T10:09:36;100898.03;;;18.35;100.00
41898;BME280;27576;53.366;-1.498;2023-08-17T10:12:06;100891.91;;;18.36;100.00
41898;BME280;27576;53.366;-1.498;2023-08-17T10:14:38;100899.69;;;18.44;100.00
41898;BME280;27576;53.366;-1.498;2023-08-17T10:17:09;100892.69;;;18.43;100.00
41898;BME280;27576;53.366;-1.498;2023-08-17T10:19:49;100883.91;;;18.45;100.00
41898;BME280;27576;53.366;-1.498;2023-08-17T10:22:46;100896.09;;;18.51;100.00
41898;BME280;27576;53.366;-1.498;2023-08-17T10:25:15;100865.69;;;18.36;100.00
41898;BME280;27576;53.366;-1.498;2023-08-17T10:27:41;100881.28;;;18.45;100.00
41898;BME280;27576;53.366;-1.498;2023-08-17T10:30:11;100845.72;;;18.21;100.00
41898;BME280;27576;53.366;-1.498;2023-08-17T10:32:37;100896.88;;;18.57;100.00
41898;BME280;27576;53.366;-1.498;2023-08-17T10:35:04;100873.31;;;18.56;100.00
41898;BME280;27576;53.366;-1.498;2023-08-17T10:37:30;100888.78;;;18.77;100.00
41898;BME280;27576;53.366;-1.498;2023-08-17T10:39:56;100888.69;;;18.85;100.00
41898;BME280;27576;53.366;-1.498;2023-08-17T10:42:33;100872.94;;;18.86;100.00
41898;BME280;27576;53.366;-1.498;2023-08-17T10:44:59;100894.50;;;19.08;100.00
41898;BME280;27576;53.366;-1.498;2023-08-17T10:47:31;100898.63;;;19.26;100.00
41898;BME280;27576;53.366;-1.498;2023-08-17T10:50:20;100894.03;;;19.39;100.00
41898;BME280;27576;53.366;-1.498;2023-08-17T10:52:48;100850.50;;;19.21;100.00
41898;BME280;27576;53.366;-1.498;2023-08-17T10:55:13;100863.66;;;19.23;100.00
41898;BME280;27576;53.366;-1.498;2023-08-17T10:57:43;100892.31;;;19.38;100.00
41898;BME280;27576;53.366;-1.498;2023-08-17T11:00:23;100892.31;;;19.38;100.00
41898;BME280;27576;53.366;-1.498;2023-08-17T11:05:37;100876.13;;;19.66;100.00
41898;BME280;27576;53.366;-1.498;2023-08-17T11:08:03;100889.91;;;19.78;100.00
41898;BME280;27576;53.366;-1.498;2023-08-17T11:10:29;100892.63;;;19.74;100.00
41898;BME280;27576;53.366;-1.498;2023-08-17T11:12:56;100886.50;;;19.72;100.00
41898;BME280;27576;53.366;-1.498;2023-08-17T11:15:34;100889.19;;;19.69;100.00
41898;BME280;27576;53.366;-1.498;2023-08-17T11:18:03;100865.78;;;19.53;100.00
41898;BME280;27576;53.366;-1.498;2023-08-17T11:20:28;100863.94;;;19.58;98.19
41898;BME280;27576;53.366;-1.498;2023-08-17T11:22:54;100876.22;;;19.58;98.38
41898;BME280;27576;53.366;-1.498;2023-08-17T11:25:19;100855.31;;;19.49;98.07
41898;BME280;27576;53.366;-1.498;2023-08-17T11:27:45;100888.31;;;19.70;98.77
41898;BME280;27576;53.366;-1.498;2023-08-17T11:30:12;100876.72;;;19.81;98.89
41898;BME280;27576;53.366;-1.498;2023-08-17T11:32:37;100873.00;;;19.92;96.99
41898;BME280;27576;53.366;-1.498;2023-08-17T11:35:03;100888.56;;;20.05;97.45
41898;BME280;27576;53.366;-1.498;2023-08-17T11:37:29;100859.66;;;20.02;95.45
41898;BME280;27576;53.366;-1.498;2023-08-17T11:39:54;100867.22;;;20.19;95.55
41898;BME280;27576;53.366;-1.498;2023-08-17T11:42:19;100874.06;;;20.29;95.96
41898;BME280;27576;53.366;-1.498;2023-08-17T11:44:45;100872.09;;;20.39;96.60
41898;BME280;27576;53.366;-1.498;2023-08-17T11:47:10;100859.91;;;20.35;96.47
41898;BME280;27576;53.366;-1.498;2023-08-17T11:49:37;100853.78;;;20.34;94.51
41898;BME280;27576;53.366;-1.498;2023-08-17T11:52:02;100869.97;;;20.59;93.82
41898;BME280;27576;53.366;-1.498;2023-08-17T11:54:28;100866.97;;;20.75;92.46
41898;BME280;27576;53.366;-1.498;2023-08-17T11:56:53;100863.88;;;20.96;91.57
41898;BME280;27576;53.366;-1.498;2023-08-17T11:59:19;100869.44;;;21.23;91.28
41898;BME280;27576;53.366;-1.498;2023-08-17T12:01:44;100856.72;;;21.40;91.90
41898;BME280;27576;53.366;-1.498;2023-08-17T12:04:10;100852.28;;;21.76;88.80
41898;BME280;27576;53.366;-1.498;2023-08-17T12:06:41;100853.31;;;22.03;87.43
41898;BME280;27576;53.366;-1.498;2023-08-17T12:09:08;100837.94;;;22.21;84.98
41898;BME280;27576;53.366;-1.498;2023-08-17T12:11:33;100820.81;;;22.34;85.25
41898;BME280;27576;53.366;-1.498;2023-08-17T12:13:59;100817.41;;;22.60;85.12
41898;BME280;27576;53.366;-1.498;2023-08-17T12:16:24;100842.00;;;22.90;81.99
41898;BME280;27576;53.366;-1.498;2023-08-17T12:18:50;100829.16;;;22.78;81.23
41898;BME280;27576;53.366;-1.498;2023-08-17T12:21:16;100829.56;;;22.66;81.95
41898;BME280;27576;53.366;-1.498;2023-08-17T12:23:44;100834.13;;;22.61;82.82
41898;BME280;27576;53.366;-1.498;2023-08-17T12:26:09;100837.75;;;22.57;81.76
41898;BME280;27576;53.366;-1.498;2023-08-17T12:28:35;100836.97;;;22.53;83.27
41898;BME280;27576;53.366;-1.498;2023-08-17T12:31:01;100833.88;;;22.68;82.51
41898;BME280;27576;53.366;-1.498;2023-08-17T12:33:27;100817.28;;;22.63;81.12
41898;BME280;27576;53.366;-1.498;2023-08-17T12:35:52;100826.72;;;22.72;81.54